sensor_id;sensor_type;location;lat;lon;timestamp;P1;durP1;ratioP1;P2;durP2;ratioP2
77948;SDS011;67146;51.236;-0.336;2023-04-10T00:00:58;17.13;;;6.53;;
77948;SDS011;67146;51.236;-0.336;2023-04-10T00:03:24;18.52;;;6.25;;
77948;SDS011;67146;51.236;-0.336;2023-04-10T00:05:50;15.48;;;6.28;;
77948;SDS011;67146;51.236;-0.336;2023-04-10T00:08:15;17.02;;;6.75;;
77948;SDS011;67146;51.236;-0.336;2023-04-10T00:10:40;17.13;;;6.32;;
77948;SDS011;67146;51.236;-0.336;2023-04-10T00:13:06;16.50;;;7.33;;
77948;SDS011;67146;51.236;-0.336;2023-04-10T00:15:31;19.75;;;7.07;;
77948;SDS011;67146;51.236;-0.336;2023-04-10T00:17:56;17.53;;;7.20;;
77948;SDS011;67146;51.236;-0.336;2023-04-10T00:20:22;17.20;;;7.57;;
77948;SDS011;67146;51.236;-0.336;2023-04-10T00:22:48;16.75;;;7.22;;
77948;SDS011;67146;51.236;-0.336;2023-04-10T00:25:13;17.48;;;6.57;;
77948;SDS011;67146;51.236;-0.336;2023-04-10T00:27:39;16.55;;;6.95;;
77948;SDS011;67146;51.236;-0.336;2023-04-10T00:30:05;17.27;;;7.53;;
77948;SDS011;67146;51.236;-0.336;2023-04-10T00:32:31;14.93;;;6.60;;
77948;SDS011;67146;51.236;-0.336;2023-04-10T00:34:56;14.93;;;6.70;;
77948;SDS011;67146;51.236;-0.336;2023-04-10T00:37:22;17.90;;;6.33;;
77948;SDS011;67146;51.236;-0.336;2023-04-10T00:39:47;14.77;;;6.77;;
77948;SDS011;67146;51.236;-0.336;2023-04-10T00:42:12;13.50;;;4.93;;
77948;SDS011;67146;51.236;-0.336;2023-04-10T00:44:38;17.00;;;7.30;;
77948;SDS011;67146;51.236;-0.336;2023-04-10T00:47:05;16.02;;;6.32;;
77948;SDS011;67146;51.236;-0.336;2023-04-10T00:49:31;16.40;;;5.90;;
77948;SDS011;67146;51.236;-0.336;2023-04-10T00:51:57;14.18;;;5.45;;
77948;SDS011;67146;51.236;-0.336;2023-04-10T00:54:23;16.33;;;6.23;;
77948;SDS011;67146;51.236;-0.336;2023-04-10T00:56:48;15.32;;;5.95;;
77948;SDS011;67146;51.236;-0.336;2023-04-10T00:59:14;17.38;;;6.13;;
77948;SDS011;67146;51.236;-0.336;2023-04-10T01:01:39;14.00;;;5.78;;
77948;SDS011;67146;51.236;-0.336;2023-04-10T01:04:05;15.40;;;5.57;;
77948;SDS011;67146;51.236;-0.336;2023-04-10T01:14:57;14.65;;;5.93;;
77948;SDS011;67146;51.236;-0.336;2023-04-10T01:17:30;14.48;;;6.07;;
77948;SDS011;67146;51.236;-0.336;2023-04-10T01:20:03;17.58;;;6.60;;
77948;SDS011;67146;51.236;-0.336;2023-04-10T01:25:13;14.27;;;5.50;;
77948;SDS011;67146;51.236;-0.336;2023-04-10T01:30:45;14.80;;;5.53;;
77948;SDS011;67146;51.236;-0.336;2023-04-10T01:33:12;17.73;;;6.15;;
77948;SDS011;67146;51.236;-0.336;2023-04-10T01:35:39;14.38;;;5.35;;
77948;SDS011;67146;51.236;-0.336;2023-04-10T01:38:05;16.45;;;6.18;;
77948;SDS011;67146;51.236;-0.336;2023-04-10T01:40:31;14.30;;;5.43;;
77948;SDS011;67146;51.236;-0.336;2023-04-10T01:42:57;15.25;;;6.38;;
77948;SDS011;67146;51.236;-0.336;2023-04-10T01:45:24;14.05;;;5.05;;
77948;SDS011;67146;51.236;-0.336;2023-04-10T01:47:52;12.98;;;5.47;;
77948;SDS011;67146;51.236;-0.336;2023-04-10T01:50:21;14.50;;;4.90;;
77948;SDS011;67146;51.236;-0.336;2023-04-10T01:52:50;14.63;;;5.50;;
77948;SDS011;67146;51.236;-0.336;2023-04-10T01:55:17;16.25;;;5.72;;
77948;SDS011;67146;51.236;-0.336;2023-04-10T01:57:43;14.90;;;5.32;;
77948;SDS011;67146;51.236;-0.336;2023-04-10T02:00:10;13.02;;;4.70;;
77948;SDS011;67146;51.236;-0.336;2023-04-10T02:02:36;12.95;;;4.70;;
77948;SDS011;67146;51.236;-0.336;2023-04-10T02:05:02;14.00;;;4.23;;
77948;SDS011;67146;51.236;-0.336;2023-04-10T02:12:37;11.65;;;4.25;;
77948;SDS011;67146;51.236;-0.336;2023-04-10T02:17:31;11.38;;;3.78;;
77948;SDS011;67146;51.236;-0.336;2023-04-10T02:19:58;13.15;;;4.28;;
77948;SDS011;67146;51.236;-0.336;2023-04-10T02:22:24;10.65;;;3.47;;
77948;SDS011;67146;51.236;-0.336;2023-04-10T02:24:53;11.55;;;4.05;;
77948;SDS011;67146;51.236;-0.336;2023-04-10T02:27:34;9.57;;;3.72;;
77948;SDS011;67146;51.236;-0.336;2023-04-10T02:30:00;9.80;;;3.13;;
77948;SDS011;67146;51.236;-0.336;2023-04-10T02:32:29;10.52;;;3.15;;
77948;SDS011;67146;51.236;-0.336;2023-04-10T02:34:55;11.80;;;3.30;;
77948;SDS011;67146;51.236;-0.336;2023-04-10T02:37:21;13.13;;;3.90;;
77948;SDS011;67146;51.236;-0.336;2023-04-10T02:39:46;13.10;;;3.78;;
77948;SDS011;67146;51.236;-0.336;2023-04-10T02:42:12;11.20;;;3.27;;
77948;SDS011;67146;51.236;-0.336;2023-04-10T02:44:37;9.35;;;2.88;;
77948;SDS011;67146;51.236;-0.336;2023-04-10T02:47:03;10.48;;;3.17;;
77948;SDS011;67146;51.236;-0.336;2023-04-10T02:49:30;12.10;;;3.20;;
77948;SDS011;67146;51.236;-0.336;2023-04-10T02:51:55;8.68;;;2.85;;
77948;SDS011;67146;51.236;-0.336;2023-04-10T02:54:21;9.95;;;3.38;;
77948;SDS011;67146;51.236;-0.336;2023-04-10T02:56:46;12.43;;;3.08;;
77948;SDS011;67146;51.236;-0.336;2023-04-10T02:59:12;8.00;;;2.65;;
77948;SDS011;67146;51.236;-0.336;2023-04-10T03:01:37;8.05;;;2.50;;
77948;SDS011;67146;51.236;-0.336;2023-04-10T03:04:03;12.00;;;3.78;;
77948;SDS011;67146;51.236;-0.336;2023-04-10T03:06:29;10.73;;;2.40;;
77948;SDS011;67146;51.236;-0.336;2023-04-10T03:08:54;7.13;;;2.35;;
77948;SDS011;67146;51.236;-0.336;2023-04-10T03:11:20;6.72;;;1.67;;
77948;SDS011;67146;51.236;-0.336;2023-04-10T03:13:46;7.68;;;2.45;;
77948;SDS011;67146;51.236;-0.336;2023-04-10T03:16:11;10.67;;;2.60;;
77948;SDS011;67146;51.236;-0.336;2023-04-10T03:18:36;7.77;;;2.80;;
77948;SDS011;67146;51.236;-0.336;2023-04-10T03:21:02;9.43;;;2.65;;
77948;SDS011;67146;51.236;-0.336;2023-04-10T03:23:27;9.55;;;2.65;;
77948;SDS011;67146;51.236;-0.336;2023-04-10T03:25:53;8.82;;;3.00;;
77948;SDS011;67146;51.236;-0.336;2023-04-10T03:28:19;10.27;;;2.53;;
77948;SDS011;67146;51.236;-0.336;2023-04-10T03:30:44;9.55;;;2.60;;
77948;SDS011;67146;51.236;-0.336;2023-04-10T03:33:10;7.37;;;1.90;;
77948;SDS011;67146;51.236;-0.336;2023-04-10T03:35:35;8.45;;;2.50;;
77948;SDS011;67146;51.236;-0.336;2023-04-10T03:38:00;7.53;;;2.40;;
77948;SDS011;67146;51.236;-0.336;2023-04-10T03:40:26;8.10;;;2.50;;
77948;SDS011;67146;51.236;-0.336;2023-04-10T03:42:51;7.75;;;2.60;;
77948;SDS011;67146;51.236;-0.336;2023-04-10T03:45:17;7.00;;;1.77;;
77948;SDS011;67146;51.236;-0.336;2023-04-10T03:47:42;7.28;;;1.85;;
77948;SDS011;67146;51.236;-0.336;2023-04-10T03:50:08;7.15;;;1.80;;
77948;SDS011;67146;51.236;-0.336;2023-04-10T03:52:33;6.32;;;1.90;;
77948;SDS011;67146;51.236;-0.336;2023-04-10T03:54:59;5.22;;;1.60;;
77948;SDS011;67146;51.236;-0.336;2023-04-10T03:57:24;7.77;;;1.90;;
77948;SDS011;67146;51.236;-0.336;2023-04-10T03:59:50;7.55;;;1.92;;
77948;SDS011;67146;51.236;-0.336;2023-04-10T04:02:15;5.68;;;1.60;;
77948;SDS011;67146;51.236;-0.336;2023-04-10T04:04:41;7.45;;;1.95;;
77948;SDS011;67146;51.236;-0.336;2023-04-10T04:07:06;8.97;;;2.00;;
77948;SDS011;67146;51.236;-0.336;2023-04-10T04:09:32;7.13;;;1.95;;
77948;SDS011;67146;51.236;-0.336;2023-04-10T04:11:58;7.68;;;2.17;;
77948;SDS011;67146;51.236;-0.336;2023-04-10T04:14:23;7.55;;;1.60;;
77948;SDS011;67146;51.236;-0.336;2023-04-10T04:16:49;7.10;;;1.85;;
77948;SDS011;67146;51.236;-0.336;2023-04-10T04:19:14;6.82;;;2.10;;
77948;SDS011;67146;51.236;-0.336;2023-04-10T04:21:39;6.63;;;2.25;;
77948;SDS011;67146;51.236;-0.336;2023-04-10T04:24:05;6.80;;;2.15;;
77948;SDS011;67146;51.236;-0.336;2023-04-10T04:26:30;9.90;;;2.47;;
77948;SDS011;67146;51.236;-0.336;2023-04-10T04:28:55;7.35;;;2.35;;
77948;SDS011;67146;51.236;-0.336;2023-04-10T04:31:21;6.35;;;2.00;;
77948;SDS011;67146;51.236;-0.336;2023-04-10T04:33:48;6.63;;;1.90;;
77948;SDS011;67146;51.236;-0.336;2023-04-10T04:36:13;6.72;;;1.73;;
77948;SDS011;67146;51.236;-0.336;2023-04-10T04:38:39;6.50;;;1.95;;
77948;SDS011;67146;51.236;-0.336;2023-04-10T04:41:04;8.90;;;2.13;;
77948;SDS011;67146;51.236;-0.336;2023-04-10T04:43:30;6.45;;;2.25;;
77948;SDS011;67146;51.236;-0.336;2023-04-10T04:45:55;5.95;;;2.13;;
77948;SDS011;67146;51.236;-0.336;2023-04-10T04:48:21;7.00;;;2.00;;
77948;SDS011;67146;51.236;-0.336;2023-04-10T04:50:47;5.97;;;2.28;;
77948;SDS011;67146;51.236;-0.336;2023-04-10T04:53:12;6.10;;;2.08;;
77948;SDS011;67146;51.236;-0.336;2023-04-10T04:55:38;6.30;;;1.92;;
77948;SDS011;67146;51.236;-0.336;2023-04-10T04:58:03;6.93;;;1.93;;
77948;SDS011;67146;51.236;-0.336;2023-04-10T05:00:29;21.42;;;2.30;;
77948;SDS011;67146;51.236;-0.336;2023-04-10T05:02:54;5.40;;;1.42;;
77948;SDS011;67146;51.236;-0.336;2023-04-10T05:05:19;4.63;;;1.40;;
77948;SDS011;67146;51.236;-0.336;2023-04-10T05:07:45;5.63;;;1.80;;
77948;SDS011;67146;51.236;-0.336;2023-04-10T05:10:10;5.00;;;1.80;;
77948;SDS011;67146;51.236;-0.336;2023-04-10T05:12:35;5.32;;;2.50;;
77948;SDS011;67146;51.236;-0.336;2023-04-10T05:15:01;5.55;;;1.17;;
77948;SDS011;67146;51.236;-0.336;2023-04-10T05:17:27;6.10;;;2.17;;
77948;SDS011;67146;51.236;-0.336;2023-04-10T05:19:52;4.93;;;1.43;;
77948;SDS011;67146;51.236;-0.336;2023-04-10T05:22:17;5.80;;;1.77;;
77948;SDS011;67146;51.236;-0.336;2023-04-10T05:24:43;5.10;;;1.40;;
77948;SDS011;67146;51.236;-0.336;2023-04-10T05:27:08;6.37;;;1.90;;
77948;SDS011;67146;51.236;-0.336;2023-04-10T05:29:33;5.00;;;1.60;;
77948;SDS011;67146;51.236;-0.336;2023-04-10T05:31:59;6.88;;;1.90;;
77948;SDS011;67146;51.236;-0.336;2023-04-10T05:34:24;7.53;;;3.08;;
77948;SDS011;67146;51.236;-0.336;2023-04-10T05:36:50;6.20;;;2.10;;
77948;SDS011;67146;51.236;-0.336;2023-04-10T05:39:15;5.40;;;1.90;;
77948;SDS011;67146;51.236;-0.336;2023-04-10T05:41:41;7.40;;;1.75;;
77948;SDS011;67146;51.236;-0.336;2023-04-10T05:44:06;5.93;;;1.75;;
77948;SDS011;67146;51.236;-0.336;2023-04-10T05:46:32;5.70;;;1.70;;
77948;SDS011;67146;51.236;-0.336;2023-04-10T05:48:57;6.47;;;2.17;;
77948;SDS011;67146;51.236;-0.336;2023-04-10T05:51:24;8.07;;;3.63;;
77948;SDS011;67146;51.236;-0.336;2023-04-10T05:53:50;6.95;;;1.92;;
77948;SDS011;67146;51.236;-0.336;2023-04-10T05:56:15;5.43;;;1.75;;
77948;SDS011;67146;51.236;-0.336;2023-04-10T05:58:41;5.63;;;1.95;;
77948;SDS011;67146;51.236;-0.336;2023-04-10T06:01:06;6.13;;;2.00;;
77948;SDS011;67146;51.236;-0.336;2023-04-10T06:03:31;5.55;;;2.28;;
77948;SDS011;67146;51.236;-0.336;2023-04-10T06:05:58;5.33;;;2.20;;
77948;SDS011;67146;51.236;-0.336;2023-04-10T06:08:24;5.40;;;1.83;;
77948;SDS011;67146;51.236;-0.336;2023-04-10T06:10:50;6.32;;;1.77;;
77948;SDS011;67146;51.236;-0.336;2023-04-10T06:13:15;6.63;;;2.00;;
77948;SDS011;67146;51.236;-0.336;2023-04-10T06:15:41;5.57;;;1.50;;
77948;SDS011;67146;51.236;-0.336;2023-04-10T06:18:06;5.32;;;1.73;;
77948;SDS011;67146;51.236;-0.336;2023-04-10T06:20:31;5.37;;;1.73;;
77948;SDS011;67146;51.236;-0.336;2023-04-10T06:22:57;6.57;;;2.30;;
77948;SDS011;67146;51.236;-0.336;2023-04-10T06:25:23;7.05;;;1.80;;
77948;SDS011;67146;51.236;-0.336;2023-04-10T06:27:48;6.82;;;2.00;;
77948;SDS011;67146;51.236;-0.336;2023-04-10T06:30:13;5.30;;;1.55;;
77948;SDS011;67146;51.236;-0.336;2023-04-10T06:32:39;5.53;;;1.45;;
77948;SDS011;67146;51.236;-0.336;2023-04-10T06:35:04;6.10;;;1.10;;
77948;SDS011;67146;51.236;-0.336;2023-04-10T06:37:31;5.05;;;1.40;;
77948;SDS011;67146;51.236;-0.336;2023-04-10T06:40:03;4.70;;;1.20;;
77948;SDS011;67146;51.236;-0.336;2023-04-10T06:42:32;5.03;;;1.15;;
77948;SDS011;67146;51.236;-0.336;2023-04-10T06:44:58;4.43;;;0.90;;
77948;SDS011;67146;51.236;-0.336;2023-04-10T06:47:24;4.05;;;0.82;;
77948;SDS011;67146;51.236;-0.336;2023-04-10T06:49:49;5.55;;;1.15;;
77948;SDS011;67146;51.236;-0.336;2023-04-10T06:52:15;6.33;;;1.03;;
77948;SDS011;67146;51.236;-0.336;2023-04-10T06:54:41;7.43;;;1.20;;
77948;SDS011;67146;51.236;-0.336;2023-04-10T06:57:06;4.25;;;1.25;;
77948;SDS011;67146;51.236;-0.336;2023-04-10T06:59:32;5.87;;;1.27;;
77948;SDS011;67146;51.236;-0.336;2023-04-10T07:01:59;7.13;;;1.30;;
77948;SDS011;67146;51.236;-0.336;2023-04-10T07:04:25;9.00;;;1.80;;
77948;SDS011;67146;51.236;-0.336;2023-04-10T07:06:50;6.17;;;1.40;;
77948;SDS011;67146;51.236;-0.336;2023-04-10T07:09:15;6.10;;;1.10;;
77948;SDS011;67146;51.236;-0.336;2023-04-10T07:11:41;5.30;;;1.35;;
77948;SDS011;67146;51.236;-0.336;2023-04-10T07:14:06;6.30;;;1.20;;
77948;SDS011;67146;51.236;-0.336;2023-04-10T07:16:31;7.53;;;1.80;;
77948;SDS011;67146;51.236;-0.336;2023-04-10T07:18:57;9.15;;;1.77;;
77948;SDS011;67146;51.236;-0.336;2023-04-10T07:21:22;5.97;;;1.57;;
77948;SDS011;67146;51.236;-0.336;2023-04-10T07:23:47;7.47;;;1.53;;
77948;SDS011;67146;51.236;-0.336;2023-04-10T07:26:13;5.97;;;1.57;;
77948;SDS011;67146;51.236;-0.336;2023-04-10T07:28:38;7.88;;;2.58;;
77948;SDS011;67146;51.236;-0.336;2023-04-10T07:31:04;6.60;;;1.70;;
77948;SDS011;67146;51.236;-0.336;2023-04-10T07:33:30;5.93;;;1.73;;
77948;SDS011;67146;51.236;-0.336;2023-04-10T07:35:55;7.50;;;1.48;;
77948;SDS011;67146;51.236;-0.336;2023-04-10T07:38:21;6.65;;;1.77;;
77948;SDS011;67146;51.236;-0.336;2023-04-10T07:40:48;5.00;;;1.63;;
77948;SDS011;67146;51.236;-0.336;2023-04-10T07:43:13;5.65;;;1.38;;
77948;SDS011;67146;51.236;-0.336;2023-04-10T07:45:39;5.30;;;0.98;;
77948;SDS011;67146;51.236;-0.336;2023-04-10T07:48:05;4.20;;;1.20;;
77948;SDS011;67146;51.236;-0.336;2023-04-10T07:50:31;4.40;;;1.00;;
77948;SDS011;67146;51.236;-0.336;2023-04-10T07:52:56;4.85;;;0.95;;
77948;SDS011;67146;51.236;-0.336;2023-04-10T07:55:22;4.60;;;1.00;;
77948;SDS011;67146;51.236;-0.336;2023-04-10T07:57:47;4.10;;;0.68;;
77948;SDS011;67146;51.236;-0.336;2023-04-10T08:00:13;4.55;;;1.00;;
77948;SDS011;67146;51.236;-0.336;2023-04-10T08:02:38;4.10;;;0.93;;
77948;SDS011;67146;51.236;-0.336;2023-04-10T08:05:06;3.42;;;0.73;;
77948;SDS011;67146;51.236;-0.336;2023-04-10T08:07:32;4.20;;;1.48;;
77948;SDS011;67146;51.236;-0.336;2023-04-10T08:09:57;3.40;;;0.63;;
77948;SDS011;67146;51.236;-0.336;2023-04-10T08:12:23;4.57;;;0.63;;
77948;SDS011;67146;51.236;-0.336;2023-04-10T08:14:48;3.40;;;0.60;;
77948;SDS011;67146;51.236;-0.336;2023-04-10T08:17:15;4.90;;;0.70;;
77948;SDS011;67146;51.236;-0.336;2023-04-10T08:19:41;4.60;;;0.77;;
77948;SDS011;67146;51.236;-0.336;2023-04-10T08:22:06;3.85;;;1.20;;
77948;SDS011;67146;51.236;-0.336;2023-04-10T08:24:31;3.13;;;0.60;;
77948;SDS011;67146;51.236;-0.336;2023-04-10T08:26:57;3.80;;;0.50;;
77948;SDS011;67146;51.236;-0.336;2023-04-10T08:29:22;3.33;;;0.33;;
77948;SDS011;67146;51.236;-0.336;2023-04-10T08:31:47;4.37;;;0.33;;
77948;SDS011;67146;51.236;-0.336;2023-04-10T08:34:13;3.72;;;0.80;;
77948;SDS011;67146;51.236;-0.336;2023-04-10T08:36:38;3.00;;;0.40;;
77948;SDS011;67146;51.236;-0.336;2023-04-10T08:39:04;3.13;;;0.40;;
77948;SDS011;67146;51.236;-0.336;2023-04-10T08:41:29;2.63;;;0.40;;
77948;SDS011;67146;51.236;-0.336;2023-04-10T08:43:55;2.50;;;0.30;;
77948;SDS011;67146;51.236;-0.336;2023-04-10T08:46:22;2.72;;;0.40;;
77948;SDS011;67146;51.236;-0.336;2023-04-10T08:49:00;2.53;;;0.32;;
77948;SDS011;67146;51.236;-0.336;2023-04-10T08:51:38;2.80;;;0.50;;
77948;SDS011;67146;51.236;-0.336;2023-04-10T08:54:10;3.50;;;0.30;;
77948;SDS011;67146;51.236;-0.336;2023-04-10T08:56:38;2.75;;;0.80;;
77948;SDS011;67146;51.236;-0.336;2023-04-10T08:59:05;2.17;;;0.30;;
77948;SDS011;67146;51.236;-0.336;2023-04-10T09:01:31;2.00;;;0.28;;
77948;SDS011;67146;51.236;-0.336;2023-04-10T09:03:58;2.28;;;0.20;;
77948;SDS011;67146;51.236;-0.336;2023-04-10T09:06:24;2.50;;;0.28;;
77948;SDS011;67146;51.236;-0.336;2023-04-10T09:08:50;2.53;;;0.30;;
77948;SDS011;67146;51.236;-0.336;2023-04-10T09:11:15;2.35;;;0.22;;
77948;SDS011;67146;51.236;-0.336;2023-04-10T09:13:41;2.83;;;0.57;;
77948;SDS011;67146;51.236;-0.336;2023-04-10T09:16:12;2.70;;;0.45;;
77948;SDS011;67146;51.236;-0.336;2023-04-10T09:18:44;2.33;;;0.40;;
77948;SDS011;67146;51.236;-0.336;2023-04-10T09:21:12;1.95;;;0.20;;
77948;SDS011;67146;51.236;-0.336;2023-04-10T09:23:45;3.60;;;0.30;;
77948;SDS011;67146;51.236;-0.336;2023-04-10T09:26:21;3.85;;;1.05;;
77948;SDS011;67146;51.236;-0.336;2023-04-10T09:28:59;2.40;;;0.30;;
77948;SDS011;67146;51.236;-0.336;2023-04-10T09:31:26;2.47;;;0.30;;
77948;SDS011;67146;51.236;-0.336;2023-04-10T09:36:43;2.15;;;0.20;;
77948;SDS011;67146;51.236;-0.336;2023-04-10T09:39:16;2.22;;;0.20;;
77948;SDS011;67146;51.236;-0.336;2023-04-10T09:41:51;2.40;;;0.20;;
77948;SDS011;67146;51.236;-0.336;2023-04-10T09:44:27;2.10;;;0.40;;
77948;SDS011;67146;51.236;-0.336;2023-04-10T09:46:57;1.75;;;0.20;;
77948;SDS011;67146;51.236;-0.336;2023-04-10T09:49:23;3.38;;;0.30;;
77948;SDS011;67146;51.236;-0.336;2023-04-10T09:51:49;3.28;;;0.43;;
77948;SDS011;67146;51.236;-0.336;2023-04-10T09:54:14;3.08;;;0.28;;
77948;SDS011;67146;51.236;-0.336;2023-04-10T09:56:40;3.03;;;0.35;;
77948;SDS011;67146;51.236;-0.336;2023-04-10T09:59:06;2.45;;;0.32;;
77948;SDS011;67146;51.236;-0.336;2023-04-10T10:01:32;3.33;;;0.30;;
77948;SDS011;67146;51.236;-0.336;2023-04-10T10:04:02;2.47;;;0.10;;
77948;SDS011;67146;51.236;-0.336;2023-04-10T10:06:31;1.52;;;0.20;;
77948;SDS011;67146;51.236;-0.336;2023-04-10T10:09:00;2.95;;;0.28;;
77948;SDS011;67146;51.236;-0.336;2023-04-10T10:11:27;2.40;;;0.82;;
77948;SDS011;67146;51.236;-0.336;2023-04-10T10:13:53;1.92;;;0.52;;
77948;SDS011;67146;51.236;-0.336;2023-04-10T10:16:25;1.42;;;0.10;;
77948;SDS011;67146;51.236;-0.336;2023-04-10T10:19:08;2.00;;;0.20;;
77948;SDS011;67146;51.236;-0.336;2023-04-10T10:21:35;1.35;;;0.13;;
77948;SDS011;67146;51.236;-0.336;2023-04-10T10:24:02;1.20;;;0.10;;
77948;SDS011;67146;51.236;-0.336;2023-04-10T10:26:31;3.03;;;0.20;;
77948;SDS011;67146;51.236;-0.336;2023-04-10T10:29:00;3.53;;;0.40;;
77948;SDS011;67146;51.236;-0.336;2023-04-10T10:33:56;2.90;;;0.40;;
77948;SDS011;67146;51.236;-0.336;2023-04-10T10:36:22;4.15;;;0.55;;
77948;SDS011;67146;51.236;-0.336;2023-04-10T10:41:42;4.55;;;0.43;;
77948;SDS011;67146;51.236;-0.336;2023-04-10T10:44:22;5.05;;;0.60;;
77948;SDS011;67146;51.236;-0.336;2023-04-10T10:47:06;4.82;;;0.57;;
77948;SDS011;67146;51.236;-0.336;2023-04-10T10:49:58;6.28;;;1.42;;
77948;SDS011;67146;51.236;-0.336;2023-04-10T10:52:40;3.83;;;0.50;;
77948;SDS011;67146;51.236;-0.336;2023-04-10T11:00:18;8.23;;;0.85;;
77948;SDS011;67146;51.236;-0.336;2023-04-10T11:02:55;6.55;;;0.95;;
77948;SDS011;67146;51.236;-0.336;2023-04-10T11:05:50;11.52;;;1.10;;
77948;SDS011;67146;51.236;-0.336;2023-04-10T11:08:16;10.32;;;0.90;;
77948;SDS011;67146;51.236;-0.336;2023-04-10T11:13:26;8.25;;;1.42;;
77948;SDS011;67146;51.236;-0.336;2023-04-10T11:15:52;7.68;;;1.33;;
77948;SDS011;67146;51.236;-0.336;2023-04-10T11:18:19;6.07;;;0.93;;
77948;SDS011;67146;51.236;-0.336;2023-04-10T11:23:32;8.45;;;0.88;;
77948;SDS011;67146;51.236;-0.336;2023-04-10T11:25:58;9.73;;;1.10;;
77948;SDS011;67146;51.236;-0.336;2023-04-10T11:28:36;10.48;;;1.52;;
77948;SDS011;67146;51.236;-0.336;2023-04-10T11:31:35;10.82;;;1.92;;
77948;SDS011;67146;51.236;-0.336;2023-04-10T11:36:25;6.93;;;1.20;;
77948;SDS011;67146;51.236;-0.336;2023-04-10T11:38:55;7.97;;;1.83;;
77948;SDS011;67146;51.236;-0.336;2023-04-10T11:41:22;5.88;;;0.90;;
77948;SDS011;67146;51.236;-0.336;2023-04-10T11:43:51;8.02;;;1.38;;
77948;SDS011;67146;51.236;-0.336;2023-04-10T11:46:17;7.97;;;1.40;;
77948;SDS011;67146;51.236;-0.336;2023-04-10T11:48:42;10.27;;;1.25;;
77948;SDS011;67146;51.236;-0.336;2023-04-10T11:51:11;10.45;;;1.73;;
77948;SDS011;67146;51.236;-0.336;2023-04-10T11:53:38;9.00;;;1.27;;
77948;SDS011;67146;51.236;-0.336;2023-04-10T11:56:13;7.70;;;1.25;;
77948;SDS011;67146;51.236;-0.336;2023-04-10T11:58:39;9.30;;;1.48;;
77948;SDS011;67146;51.236;-0.336;2023-04-10T12:01:05;10.88;;;1.55;;
77948;SDS011;67146;51.236;-0.336;2023-04-10T12:03:34;9.65;;;1.42;;
77948;SDS011;67146;51.236;-0.336;2023-04-10T12:06:05;8.45;;;0.93;;
77948;SDS011;67146;51.236;-0.336;2023-04-10T12:08:32;9.30;;;1.40;;
77948;SDS011;67146;51.236;-0.336;2023-04-10T12:10:58;14.25;;;1.75;;
77948;SDS011;67146;51.236;-0.336;2023-04-10T12:13:25;11.63;;;1.90;;
77948;SDS011;67146;51.236;-0.336;2023-04-10T12:15:51;14.23;;;1.48;;
77948;SDS011;67146;51.236;-0.336;2023-04-10T12:18:17;10.88;;;1.65;;
77948;SDS011;67146;51.236;-0.336;2023-04-10T12:20:43;10.20;;;1.17;;
77948;SDS011;67146;51.236;-0.336;2023-04-10T12:23:08;14.18;;;1.75;;
77948;SDS011;67146;51.236;-0.336;2023-04-10T12:25:34;14.18;;;1.80;;
77948;SDS011;67146;51.236;-0.336;2023-04-10T12:28:00;14.25;;;1.83;;
77948;SDS011;67146;51.236;-0.336;2023-04-10T12:30:25;15.68;;;1.77;;
77948;SDS011;67146;51.236;-0.336;2023-04-10T12:32:51;10.85;;;2.25;;
77948;SDS011;67146;51.236;-0.336;2023-04-10T12:35:19;12.13;;;1.60;;
77948;SDS011;67146;51.236;-0.336;2023-04-10T12:37:51;13.80;;;1.75;;
77948;SDS011;67146;51.236;-0.336;2023-04-10T12:40:18;13.50;;;1.92;;
77948;SDS011;67146;51.236;-0.336;2023-04-10T12:42:46;17.38;;;1.85;;
77948;SDS011;67146;51.236;-0.336;2023-04-10T12:45:12;14.80;;;1.88;;
77948;SDS011;67146;51.236;-0.336;2023-04-10T12:47:43;17.25;;;2.38;;
77948;SDS011;67146;51.236;-0.336;2023-04-10T12:50:13;12.52;;;1.88;;
77948;SDS011;67146;51.236;-0.336;2023-04-10T12:52:40;33.00;;;2.17;;
77948;SDS011;67146;51.236;-0.336;2023-04-10T12:55:17;13.73;;;1.52;;
77948;SDS011;67146;51.236;-0.336;2023-04-10T12:57:45;12.52;;;1.48;;
77948;SDS011;67146;51.236;-0.336;2023-04-10T13:00:14;11.13;;;1.20;;
77948;SDS011;67146;51.236;-0.336;2023-04-10T13:02:41;11.40;;;1.20;;
77948;SDS011;67146;51.236;-0.336;2023-04-10T13:05:07;12.18;;;1.52;;
77948;SDS011;67146;51.236;-0.336;2023-04-10T13:07:32;10.98;;;1.67;;
77948;SDS011;67146;51.236;-0.336;2023-04-10T13:09:58;13.07;;;1.48;;
77948;SDS011;67146;51.236;-0.336;2023-04-10T13:12:24;5.75;;;0.70;;
77948;SDS011;67146;51.236;-0.336;2023-04-10T13:14:50;5.18;;;0.60;;
77948;SDS011;67146;51.236;-0.336;2023-04-10T13:17:18;8.13;;;0.88;;
77948;SDS011;67146;51.236;-0.336;2023-04-10T13:19:44;5.05;;;0.80;;
77948;SDS011;67146;51.236;-0.336;2023-04-10T13:22:09;4.88;;;0.50;;
77948;SDS011;67146;51.236;-0.336;2023-04-10T13:24:35;3.27;;;0.30;;
77948;SDS011;67146;51.236;-0.336;2023-04-10T13:27:01;4.28;;;0.30;;
77948;SDS011;67146;51.236;-0.336;2023-04-10T13:29:26;3.50;;;0.20;;
77948;SDS011;67146;51.236;-0.336;2023-04-10T13:31:52;4.13;;;0.20;;
77948;SDS011;67146;51.236;-0.336;2023-04-10T13:34:18;6.20;;;0.55;;
77948;SDS011;67146;51.236;-0.336;2023-04-10T13:36:43;3.97;;;0.30;;
77948;SDS011;67146;51.236;-0.336;2023-04-10T13:39:08;5.60;;;0.50;;
77948;SDS011;67146;51.236;-0.336;2023-04-10T13:41:34;4.25;;;0.30;;
77948;SDS011;67146;51.236;-0.336;2023-04-10T13:43:59;4.90;;;0.40;;
77948;SDS011;67146;51.236;-0.336;2023-04-10T13:46:25;5.70;;;0.30;;
77948;SDS011;67146;51.236;-0.336;2023-04-10T13:48:50;5.10;;;1.07;;
77948;SDS011;67146;51.236;-0.336;2023-04-10T13:51:15;3.42;;;0.47;;
77948;SDS011;67146;51.236;-0.336;2023-04-10T13:53:41;3.73;;;0.37;;
77948;SDS011;67146;51.236;-0.336;2023-04-10T13:56:06;4.53;;;0.32;;
77948;SDS011;67146;51.236;-0.336;2023-04-10T13:58:32;5.15;;;1.02;;
77948;SDS011;67146;51.236;-0.336;2023-04-10T14:00:58;3.92;;;0.28;;
77948;SDS011;67146;51.236;-0.336;2023-04-10T14:03:24;7.80;;;0.47;;
77948;SDS011;67146;51.236;-0.336;2023-04-10T14:05:49;6.65;;;0.95;;
77948;SDS011;67146;51.236;-0.336;2023-04-10T14:08:16;8.35;;;0.98;;
77948;SDS011;67146;51.236;-0.336;2023-04-10T14:10:41;11.82;;;1.15;;
77948;SDS011;67146;51.236;-0.336;2023-04-10T14:13:07;10.93;;;1.73;;
77948;SDS011;67146;51.236;-0.336;2023-04-10T14:15:33;8.73;;;2.63;;
77948;SDS011;67146;51.236;-0.336;2023-04-10T14:18:04;11.60;;;1.27;;
77948;SDS011;67146;51.236;-0.336;2023-04-10T14:20:30;10.85;;;1.45;;
77948;SDS011;67146;51.236;-0.336;2023-04-10T14:22:56;11.97;;;1.47;;
77948;SDS011;67146;51.236;-0.336;2023-04-10T14:25:21;13.77;;;1.98;;
77948;SDS011;67146;51.236;-0.336;2023-04-10T14:27:46;8.33;;;1.20;;
77948;SDS011;67146;51.236;-0.336;2023-04-10T14:30:12;11.00;;;0.87;;
77948;SDS011;67146;51.236;-0.336;2023-04-10T14:32:37;10.80;;;1.35;;
77948;SDS011;67146;51.236;-0.336;2023-04-10T14:35:03;6.32;;;0.55;;
77948;SDS011;67146;51.236;-0.336;2023-04-10T14:37:29;7.50;;;0.57;;
77948;SDS011;67146;51.236;-0.336;2023-04-10T14:39:54;6.50;;;0.68;;
77948;SDS011;67146;51.236;-0.336;2023-04-10T14:42:20;6.50;;;0.30;;
77948;SDS011;67146;51.236;-0.336;2023-04-10T14:44:47;5.65;;;0.70;;
77948;SDS011;67146;51.236;-0.336;2023-04-10T14:47:12;5.60;;;0.77;;
77948;SDS011;67146;51.236;-0.336;2023-04-10T14:49:39;4.85;;;0.57;;
77948;SDS011;67146;51.236;-0.336;2023-04-10T14:52:04;8.15;;;1.25;;
77948;SDS011;67146;51.236;-0.336;2023-04-10T14:54:30;6.20;;;0.70;;
77948;SDS011;67146;51.236;-0.336;2023-04-10T14:56:56;7.75;;;0.82;;
77948;SDS011;67146;51.236;-0.336;2023-04-10T14:59:22;8.15;;;0.60;;
77948;SDS011;67146;51.236;-0.336;2023-04-10T15:01:47;9.45;;;1.27;;
77948;SDS011;67146;51.236;-0.336;2023-04-10T15:04:12;7.80;;;0.52;;
77948;SDS011;67146;51.236;-0.336;2023-04-10T15:06:38;10.98;;;1.33;;
77948;SDS011;67146;51.236;-0.336;2023-04-10T15:09:03;7.75;;;0.90;;
77948;SDS011;67146;51.236;-0.336;2023-04-10T15:11:29;8.45;;;0.98;;